Impacts TAF Board
For situational awareness. Not to be used for flight planning purposes.
IDs:

KDTW - Detroit Metro/Wayne, MI, US

Issued at 0305 UTC 10 Dec 2018
Updated at 0355 UTC 10 Dec 2018
Potential Impact None Slight Moderate High
Time0353Z 10/04Z 10/05Z 10/06Z 10/07Z 10/08Z 10/09Z 10/10Z 10/11Z 10/12Z 10/13Z 10/14Z 10/15Z 10/16Z>>
Type OBS PRVL PRVL PRVL PRVL PRVL PRVL PRVL PRVL PRVL PRVL PRVL PRVL PRVL
VIS 6 >6 >6 >6 >6 >6 >6 >6 >6 >6 >6 >6 >6 >6
CIG -- -- -- -- -- -- -- -- 15 15 15 15 15 15
Cover CLR SKC SKC SKC SKC SKC SKC SKC OVC OVC OVC OVC OVC OVC
FltCat VFR VFR VFR VFR VFR VFR VFR VFR MVFR MVFR MVFR MVFR MVFR MVFR
WX HZ -- -- -- -- -- -- -- -- -- -- -- -- --
WDir VRB 340 340 340 340 340 340 340 280 280 280 280 280 280
WSpd 0 4 4 4 4 4 4 4 4 4 4 4 4 4
WGst -- -- -- -- -- -- -- -- -- -- -- -- -- --
Raw TAF
KDTW 100305Z 1003/1106 34004KT P6SM SKC
  FM101100 28004KT P6SM OVC015
  FM101900 24004KT P6SM BKN025
  FM110000 22005KT P6SM SKC


Raw METAR
KDTW 100353Z 00000KT 6SM HZ CLR M04/M08 A3026 RMK AO2 SLP256 T10391078
KDTW 100253Z 00000KT 7SM CLR M03/M08 A3026 RMK AO2 SLP255 T10331078 58002
KDTW 100153Z 34005KT 10SM CLR M03/M08 A3026 RMK AO2 SLP257 T10281078
KDTW 100053Z 34004KT 10SM CLR M02/M08 A3026 RMK AO2 SLP256 T10221078

METAR Board
Radar Display
Forecast Discussion
For situational awareness. Not to be used for flight planning purposes.